Time;durP1;ratioP1;P1;durP2;ratioP2;P2;SDS_P1;SDS_P2;PMS_P1;PMS_P2;Temp;Humidity;BMP_temperature;BMP_pressure;BME280_temperature;BME280_humidity;BME280_pressure;Samples;Min_cycle;Max_cycle;Signal;HPM_P1;HPM_P2
2022/05/26 00:00:12;;;;;;;3.22;1.20;;;;;;;17.15;54.39;100440.09;5093338;28;20059;-51
2022/05/26 00:02:39;;;;;;;2.45;1.20;;;;;;;17.21;54.32;100429.41;5094101;28;20048;-50
2022/05/26 00:05:08;;;;;;;4.35;1.38;;;;;;;17.15;54.81;100428.84;5094484;28;20063;-50
2022/05/26 00:07:37;;;;;;;4.35;2.15;;;;;;;17.14;55.03;100432.03;5095272;28;20056;-50
2022/05/26 00:10:05;;;;;;;3.47;1.00;;;;;;;17.19;55.27;100426.13;5095145;28;20051;-51
2022/05/26 00:12:33;;;;;;;4.10;1.20;;;;;;;17.08;55.84;100425.03;5080372;28;20067;-50
2022/05/26 00:15:00;;;;;;;3.50;1.45;;;;;;;17.04;56.19;100424.94;5074717;28;20511;-51
2022/05/26 00:17:30;;;;;;;4.72;1.50;;;;;;;16.95;56.67;100427.91;5074793;28;20501;-50
2022/05/26 00:20:01;;;;;;;3.25;1.60;;;;;;;16.85;57.00;100425.59;5074529;28;20404;-50
2022/05/26 00:22:34;;;;;;;2.55;1.50;;;;;;;16.84;57.29;100413.53;5073971;28;20049;-50
2022/05/26 00:25:04;;;;;;;3.95;1.48;;;;;;;16.93;57.11;100418.19;5074591;28;20408;-50
2022/05/26 00:27:32;;;;;;;3.65;1.65;;;;;;;16.90;57.19;100419.72;5074754;28;20057;-51
2022/05/26 00:30:02;;;;;;;3.30;1.48;;;;;;;16.99;57.10;100414.75;5074386;28;20056;-51
2022/05/26 00:32:30;;;;;;;3.25;1.30;;;;;;;16.91;57.11;100414.94;5085601;28;20044;-50
2022/05/26 00:34:57;;;;;;;3.25;1.80;;;;;;;16.99;56.89;100413.94;5094342;28;20055;-51
2022/05/26 00:37:25;;;;;;;2.05;1.33;;;;;;;16.93;57.21;100419.00;5094878;28;20048;-51
2022/05/26 00:39:55;;;;;;;2.55;1.40;;;;;;;16.95;56.96;100416.66;5094652;28;20484;-50
2022/05/26 00:42:23;;;;;;;3.78;1.38;;;;;;;16.93;57.04;100423.81;5091078;28;20056;-51
2022/05/26 00:44:51;;;;;;;3.40;1.53;;;;;;;16.97;57.05;100424.75;5094603;28;20409;-50
2022/05/26 00:47:21;;;;;;;3.80;1.50;;;;;;;16.90;57.21;100425.34;5094484;28;20052;-54
2022/05/26 00:49:53;;;;;;;2.67;1.20;;;;;;;16.93;57.24;100421.81;5094431;28;20400;-50
2022/05/26 00:52:27;;;;;;;2.53;1.17;;;;;;;16.95;57.24;100433.53;5090927;28;20048;-51
2022/05/26 00:54:55;;;;;;;3.28;1.63;;;;;;;16.98;57.20;100418.75;5094213;28;20063;-50
2022/05/26 00:57:30;;;;;;;3.67;1.42;;;;;;;16.93;57.25;100419.00;5094040;28;20089;-51
2022/05/26 01:00:02;;;;;;;3.33;1.58;;;;;;;16.97;57.12;100419.94;5094117;28;20048;-50
2022/05/26 01:02:36;;;;;;;2.58;1.60;;;;;;;16.92;57.43;100422.97;5077676;28;20048;-50
2022/05/26 01:05:12;;;;;;;2.33;1.27;;;;;;;16.92;57.47;100422.19;5073800;28;20053;-50
2022/05/26 01:07:40;;;;;;;2.75;1.35;;;;;;;17.00;56.86;100424.81;5073670;28;20052;-50
2022/05/26 01:10:11;;;;;;;2.88;1.67;;;;;;;16.96;57.06;100423.91;5073611;28;20049;-51
2022/05/26 01:12:40;;;;;;;4.18;1.63;;;;;;;16.93;57.17;100429.47;5089582;28;20051;-53
2022/05/26 01:15:11;;;;;;;4.37;1.40;;;;;;;16.95;57.11;100422.28;5094171;28;20052;-50
2022/05/26 01:17:50;;;;;;;4.53;1.95;;;;;;;16.93;57.24;100433.09;5094067;28;20458;-50
2022/05/26 01:20:54;;;;;;;2.92;1.52;;;;;;;16.93;57.18;100433.09;5093879;28;20052;-51
2022/05/26 01:24:01;;;;;;;4.45;1.75;;;;;;;16.93;57.31;100438.72;5073668;28;20044;-50
2022/05/26 01:27:15;;;;;;;5.30;1.80;;;;;;;16.79;57.58;100424.19;5073686;28;20053;-50
2022/05/26 01:30:23;;;;;;;3.83;1.63;;;;;;;16.77;57.88;100426.53;5011587;28;20153;-51
2022/05/26 01:33:22;;;;;;;4.75;1.75;;;;;;;16.71;57.96;100428.78;5072687;28;20481;-51
2022/05/26 01:36:00;;;;;;;1.80;1.30;;;;;;;16.66;58.22;100439.50;5074067;28;20055;-51
2022/05/26 01:38:40;;;;;;;3.55;1.48;;;;;;;16.61;58.58;100430.13;5073359;28;20052;-50
2022/05/26 01:41:13;;;;;;;4.43;1.50;;;;;;;16.68;58.38;100434.31;5077073;28;20048;-50
2022/05/26 01:43:49;;;;;;;2.88;1.60;;;;;;;16.67;58.39;100436.28;5073114;28;20378;-49
2022/05/26 01:46:23;;;;;;;5.80;1.50;;;;;;;16.74;58.26;100428.09;5073006;28;20059;-50
2022/05/26 01:48:56;;;;;;;2.38;1.13;;;;;;;16.81;58.20;100433.13;5073176;28;20055;-50
2022/05/26 01:51:30;;;;;;;4.50;1.60;;;;;;;16.86;58.08;100434.88;5080692;28;20067;-50
2022/05/26 01:54:12;;;;;;;2.17;1.40;;;;;;;16.70;58.49;100429.16;5093170;28;20060;-50
2022/05/26 01:56:48;;;;;;;2.30;1.63;;;;;;;16.69;58.55;100430.31;5092818;28;20052;-50
2022/05/26 01:59:22;;;;;;;4.43;1.50;;;;;;;16.77;58.35;100432.16;5092963;28;20602;-50
2022/05/26 02:01:54;;;;;;;3.05;1.75;;;;;;;16.81;58.17;100427.50;5087489;28;20052;-50
2022/05/26 02:04:26;;;;;;;3.55;1.40;;;;;;;16.75;58.42;100435.34;5072646;28;20060;-50
2022/05/26 02:06:58;;;;;;;2.10;1.35;;;;;;;16.79;58.42;100435.44;5072701;28;20059;-50
2022/05/26 02:09:30;;;;;;;3.40;1.40;;;;;;;16.71;58.78;100444.84;5072757;28;20481;-50
2022/05/26 02:12:02;;;;;;;2.88;1.60;;;;;;;16.80;58.67;100437.94;5072142;28;20048;-49
2022/05/26 02:14:34;;;;;;;2.25;1.40;;;;;;;16.76;58.89;100433.38;5072647;28;20071;-50
2022/05/26 02:17:08;;;;;;;3.65;1.90;;;;;;;16.78;58.98;100436.63;5072540;28;20063;-49
2022/05/26 02:19:40;;;;;;;2.35;1.67;;;;;;;16.72;59.14;100440.88;5072401;28;20048;-52
2022/05/26 02:22:16;;;;;;;2.75;1.38;;;;;;;16.74;59.27;100444.16;5071147;28;20045;-50
2022/05/26 02:24:52;;;;;;;2.17;1.40;;;;;;;16.71;59.28;100442.84;5072578;28;20059;-49
2022/05/26 02:27:20;;;;;;;2.58;1.73;;;;;;;16.73;59.30;100448.13;5072399;28;20056;-50
2022/05/26 02:29:55;;;;;;;3.63;1.55;;;;;;;16.76;59.38;100447.44;5072294;28;20048;-53
2022/05/26 02:32:29;;;;;;;2.80;1.50;;;;;;;16.77;59.31;100463.94;5086581;28;20058;-50
2022/05/26 02:35:02;;;;;;;2.95;1.30;;;;;;;16.75;59.45;100451.41;5092313;28;20385;-49
2022/05/26 02:37:32;;;;;;;5.38;2.03;;;;;;;16.69;59.84;100447.19;5092614;28;20063;-50
2022/05/26 02:40:00;;;;;;;4.18;1.52;;;;;;;16.64;60.11;100451.09;5092668;28;20052;-50
2022/05/26 02:42:28;;;;;;;4.68;1.50;;;;;;;16.67;60.09;100452.38;5088516;28;20484;-50
2022/05/26 02:44:57;;;;;;;5.13;1.83;;;;;;;16.70;60.32;100458.09;5092348;28;20392;-51
2022/05/26 02:47:37;;;;;;;3.33;1.38;;;;;;;16.77;60.10;100449.84;5092291;28;20079;-50
2022/05/26 02:50:24;;;;;;;3.38;1.88;;;;;;;16.81;60.00;100455.63;5091650;28;20058;-51
2022/05/26 02:53:06;;;;;;;3.95;1.52;;;;;;;16.77;60.30;100452.66;5072208;28;20044;-50
2022/05/26 02:55:47;;;;;;;2.20;1.30;;;;;;;16.76;60.31;100447.44;5072287;28;20052;-50
2022/05/26 02:58:33;;;;;;;3.17;1.92;;;;;;;16.73;60.57;100442.50;5072309;28;20052;-50
2022/05/26 03:01:08;;;;;;;3.55;1.35;;;;;;;16.63;61.01;100455.91;5070692;28;20044;-51
2022/05/26 03:03:42;;;;;;;5.20;1.80;;;;;;;16.57;61.34;100453.69;5072174;28;20094;-51
2022/05/26 03:06:16;;;;;;;4.00;1.90;;;;;;;16.56;61.49;100454.84;5075765;28;20048;-52
2022/05/26 03:08:46;;;;;;;3.95;1.88;;;;;;;16.54;61.67;100457.19;5092281;28;20499;-51
2022/05/26 03:11:18;;;;;;;4.30;1.88;;;;;;;16.52;61.96;100468.81;5082668;28;20414;-53
2022/05/26 03:13:46;;;;;;;4.93;2.20;;;;;;;16.48;62.08;100453.81;5071937;28;20481;-52
2022/05/26 03:16:13;;;;;;;4.03;1.90;;;;;;;16.48;62.42;100473.50;5072177;28;20393;-52
2022/05/26 03:18:41;;;;;;;6.25;2.22;;;;;;;16.39;62.90;100464.38;5072081;28;20051;-50
2022/05/26 03:21:11;;;;;;;2.67;1.60;;;;;;;16.37;62.79;100469.53;5071687;28;20048;-51
2022/05/26 03:23:39;;;;;;;6.18;2.13;;;;;;;16.44;62.70;100469.75;5071531;28;20052;-50
2022/05/26 03:26:08;;;;;;;2.70;1.58;;;;;;;16.47;63.03;100466.25;5071706;28;20056;-50
2022/05/26 03:28:36;;;;;;;2.75;1.75;;;;;;;16.50;62.76;100468.34;5071795;28;20048;-50
2022/05/26 03:31:08;;;;;;;3.55;1.70;;;;;;;16.47;63.00;100471.06;5077295;28;20048;-51
2022/05/26 03:41:56;;;;;;;4.55;1.90;;;;;;;16.45;63.33;100462.97;5100192;28;20511;-50
2022/05/26 03:44:25;;;;;;;4.55;2.05;;;;;;;16.41;63.67;100468.47;5095404;28;20070;-49
2022/05/26 03:46:53;;;;;;;3.65;1.92;;;;;;;16.51;63.18;100467.19;5095498;28;20053;-50
2022/05/26 03:49:21;;;;;;;4.35;2.10;;;;;;;16.51;63.23;100480.41;5091704;28;20064;-51
2022/05/26 03:51:49;;;;;;;3.20;1.80;;;;;;;16.50;63.28;100488.03;5075339;28;20405;-52
2022/05/26 03:54:20;;;;;;;2.30;1.80;;;;;;;16.52;63.39;100488.47;5074929;28;20053;-52
2022/05/26 03:56:47;;;;;;;3.60;2.22;;;;;;;16.51;63.47;100478.41;5074888;28;20052;-51
2022/05/26 03:59:14;;;;;;;4.50;2.38;;;;;;;16.36;64.13;100476.34;5074498;28;20059;-51
2022/05/26 04:01:42;;;;;;;4.53;2.28;;;;;;;16.36;64.31;100479.16;5074983;28;20493;-52
2022/05/26 04:04:09;;;;;;;3.03;1.80;;;;;;;16.43;63.99;100488.63;5074916;28;20052;-51
2022/05/26 04:06:39;;;;;;;5.55;2.38;;;;;;;16.34;64.44;100501.19;5074928;28;20059;-51
2022/05/26 04:09:07;;;;;;;3.70;2.20;;;;;;;16.19;65.28;100502.69;5081066;28;20056;-51
2022/05/26 04:11:38;;;;;;;3.40;2.00;;;;;;;16.35;64.57;100491.56;5075429;28;20052;-51
2022/05/26 04:14:07;;;;;;;3.53;1.95;;;;;;;16.40;64.71;100494.97;5074911;28;20049;-52
2022/05/26 04:16:36;;;;;;;4.43;2.40;;;;;;;16.35;64.96;100511.25;5074903;28;20082;-51
2022/05/26 04:19:03;;;;;;;3.38;2.00;;;;;;;16.49;64.64;100510.88;5073990;28;20493;-52
2022/05/26 04:21:31;;;;;;;4.25;2.17;;;;;;;16.58;64.40;100508.75;5074537;28;20053;-51
2022/05/26 04:23:58;;;;;;;2.65;1.85;;;;;;;16.58;64.24;100512.38;5074627;28;20048;-53
2022/05/26 04:26:27;;;;;;;3.22;2.10;;;;;;;16.57;64.50;100519.19;5074437;28;20060;-51
2022/05/26 04:29:13;;;;;;;4.03;2.20;;;;;;;16.58;64.52;100514.38;5074270;28;20065;-53
2022/05/26 04:31:41;;;;;;;3.50;1.67;;;;;;;16.61;64.52;100519.31;5073018;28;20064;-52
2022/05/26 04:34:08;;;;;;;3.90;2.10;;;;;;;16.57;65.20;100524.00;5074265;28;20401;-54
2022/05/26 04:36:36;;;;;;;6.65;2.67;;;;;;;16.66;65.52;100518.25;5074065;28;20409;-53
2022/05/26 04:39:03;;;;;;;5.45;2.50;;;;;;;16.68;67.10;100524.31;5076460;28;20052;-51
2022/05/26 04:41:32;;;;;;;5.85;2.53;;;;;;;16.67;67.98;100526.28;5092548;28;20044;-52
2022/05/26 04:43:59;;;;;;;4.57;2.73;;;;;;;16.48;68.54;100538.16;5094240;28;20508;-51
2022/05/26 04:46:27;;;;;;;5.13;3.10;;;;;;;16.31;69.42;100532.78;5093302;28;20082;-51
2022/05/26 04:48:54;;;;;;;6.53;3.00;;;;;;;16.26;70.61;100533.84;5091202;28;20052;-52
2022/05/26 04:51:21;;;;;;;3.55;2.97;;;;;;;16.27;70.95;100543.09;5073703;28;20053;-51
2022/05/26 04:53:49;;;;;;;4.85;3.15;;;;;;;16.28;70.60;100547.56;5074109;28;20052;-51
2022/05/26 04:56:16;;;;;;;4.25;2.75;;;;;;;16.24;71.22;100539.81;5073432;28;20072;-54
2022/05/26 04:58:51;;;;;;;3.95;2.70;;;;;;;16.31;71.14;100542.03;5073527;28;20056;-52
2022/05/26 05:01:20;;;;;;;4.95;3.15;;;;;;;16.35;71.30;100544.97;5094085;28;20385;-53
2022/05/26 05:03:50;;;;;;;5.30;3.27;;;;;;;16.42;71.21;100550.81;5093846;28;20052;-52
2022/05/26 05:06:18;;;;;;;4.43;2.70;;;;;;;16.44;71.57;100554.09;5085582;28;20478;-51
2022/05/26 05:08:46;;;;;;;4.53;3.17;;;;;;;16.42;72.11;100562.06;5084895;28;20051;-53
2022/05/26 05:11:14;;;;;;;6.25;3.72;;;;;;;16.45;72.33;100561.38;5093497;28;20075;-52
2022/05/26 05:13:41;;;;;;;3.70;2.60;;;;;;;16.37;72.50;100557.50;5091322;28;20044;-51
2022/05/26 05:16:17;;;;;;;7.05;3.63;;;;;;;16.30;72.88;100553.66;5094218;28;20052;-51
2022/05/26 05:18:45;;;;;;;5.38;3.45;;;;;;;16.30;73.19;100562.09;5094013;28;20048;-54
2022/05/26 05:21:16;;;;;;;3.92;2.53;;;;;;;16.29;73.29;100568.88;5093895;28;20059;-52
2022/05/26 05:23:48;;;;;;;5.10;2.75;;;;;;;16.27;73.22;100559.97;5085918;28;20048;-51
2022/05/26 05:26:24;;;;;;;5.40;2.75;;;;;;;16.28;73.22;100564.44;5083270;28;20075;-53
2022/05/26 05:28:57;;;;;;;4.80;3.25;;;;;;;16.27;73.56;100568.41;5072879;28;20056;-51
2022/05/26 05:31:30;;;;;;;4.75;3.38;;;;;;;16.22;74.10;100575.88;5075138;28;20049;-52
2022/05/26 05:34:02;;;;;;;3.58;2.70;;;;;;;16.30;73.84;100578.94;5089374;28;20048;-54
2022/05/26 05:36:33;;;;;;;4.57;2.95;;;;;;;16.41;73.29;100580.13;5084061;28;20060;-54
2022/05/26 05:39:01;;;;;;;5.38;3.40;;;;;;;16.44;73.61;100579.41;5092881;28;20059;-54
2022/05/26 05:41:30;;;;;;;4.22;2.83;;;;;;;16.46;72.91;100585.50;5080881;28;20048;-51
2022/05/26 05:43:57;;;;;;;4.10;2.80;;;;;;;16.47;72.69;100586.34;5078321;28;20061;-55
2022/05/26 05:46:33;;;;;;;6.60;2.83;;;;;;;16.58;72.86;100582.69;5079581;28;20056;-51
2022/05/26 05:49:02;;;;;;;4.93;3.20;;;;;;;16.69;72.88;100588.63;5078864;28;20060;-51
2022/05/26 05:51:30;;;;;;;6.00;4.47;;;;;;;16.79;71.97;100595.78;5083760;28;20484;-52
2022/05/26 05:53:58;;;;;;;4.55;3.67;;;;;;;16.88;71.52;100599.31;5073283;28;20515;-54
2022/05/26 05:56:26;;;;;;;7.28;5.38;;;;;;;16.91;71.44;100607.06;5072114;28;20063;-51
2022/05/26 05:58:55;;;;;;;7.93;4.30;;;;;;;16.98;71.02;100601.66;5071835;28;20060;-52
2022/05/26 06:01:23;;;;;;;6.50;4.47;;;;;;;17.02;70.76;100601.75;5072962;28;20048;-52
2022/05/26 06:03:52;;;;;;;7.50;5.03;;;;;;;17.09;70.81;100603.97;5072021;28;20052;-51
2022/05/26 06:06:19;;;;;;;7.80;5.28;;;;;;;17.16;70.11;100609.84;5071365;28;20075;-51
2022/05/26 06:08:46;;;;;;;8.30;6.57;;;;;;;17.22;70.00;100605.59;5085094;28;20488;-52
2022/05/26 06:11:14;;;;;;;9.63;6.22;;;;;;;17.30;69.68;100612.25;5085199;28;20048;-52
2022/05/26 06:13:41;;;;;;;8.85;6.75;;;;;;;17.26;69.44;100617.78;5074849;28;20051;-52
2022/05/26 06:16:13;;;;;;;9.63;6.93;;;;;;;17.20;69.48;100622.03;5076841;28;20052;-53
2022/05/26 06:18:40;;;;;;;10.52;7.97;;;;;;;17.21;69.60;100626.47;5084335;28;20052;-54
2022/05/26 06:21:09;;;;;;;11.90;7.57;;;;;;;17.28;69.78;100626.66;5084185;28;20052;-54
2022/05/26 06:23:36;;;;;;;11.73;8.47;;;;;;;17.27;69.11;100633.47;5092082;28;20052;-51
2022/05/26 06:26:03;;;;;;;10.35;7.55;;;;;;;17.37;69.38;100635.81;5089058;28;20481;-55
2022/05/26 06:31:16;;;;;;;14.15;10.57;;;;;;;17.36;69.08;100631.34;5081315;28;20059;-51
2022/05/26 06:39:25;;;;;;;12.75;10.27;;;;;;;17.47;67.85;100633.66;5085908;28;20526;-55
2022/05/26 06:42:07;;;;;;;15.27;10.10;;;;;;;17.62;67.92;100644.19;5078008;28;20499;-51
2022/05/26 06:44:38;;;;;;;16.38;11.38;;;;;;;17.68;68.25;100651.19;5072063;28;20045;-53
2022/05/26 06:47:10;;;;;;;15.57;10.93;;;;;;;17.69;67.72;100647.19;5074549;28;20055;-51
2022/05/26 06:49:42;;;;;;;15.40;9.93;;;;;;;17.68;67.14;100650.34;5081575;28;20063;-52
2022/05/26 06:52:12;;;;;;;16.75;10.82;;;;;;;17.75;67.57;100647.75;5072385;28;20437;-54
2022/05/26 06:54:42;;;;;;;15.23;10.57;;;;;;;17.82;67.55;100645.97;5071859;28;20484;-51
2022/05/26 06:57:11;;;;;;;17.38;10.40;;;;;;;18.02;66.75;100646.13;5086113;28;20492;-52
2022/05/26 06:59:39;;;;;;;13.88;10.35;;;;;;;18.30;66.58;100653.72;5071404;28;20052;-51
2022/05/26 07:02:09;;;;;;;12.23;9.50;;;;;;;18.50;64.77;100655.44;5088995;28;20044;-52
2022/05/26 07:04:37;;;;;;;15.27;9.90;;;;;;;18.63;63.59;100656.16;5085057;28;20049;-52
2022/05/26 07:07:05;;;;;;;11.98;8.50;;;;;;;18.74;63.16;100662.06;5085498;28;20465;-51
2022/05/26 07:09:34;;;;;;;14.45;10.15;;;;;;;18.74;63.21;100673.38;5073424;28;20059;-51
2022/05/26 07:12:02;;;;;;;13.07;10.10;;;;;;;18.64;63.38;100667.06;5074524;28;20408;-54
2022/05/26 07:14:29;;;;;;;16.05;10.32;;;;;;;18.80;62.69;100671.94;5082358;28;20056;-54
2022/05/26 07:16:56;;;;;;;17.35;11.38;;;;;;;18.74;62.40;100676.19;5096278;28;20052;-53
2022/05/26 07:19:23;;;;;;;15.38;11.13;;;;;;;18.91;62.63;100667.34;5089551;28;20059;-51
2022/05/26 07:21:51;;;;;;;14.82;11.95;;;;;;;18.95;62.17;100676.72;5088262;28;20063;-52
2022/05/26 07:24:19;;;;;;;15.23;11.32;;;;;;;19.03;62.13;100687.00;5075833;28;20366;-53
2022/05/26 07:26:48;;;;;;;15.85;9.93;;;;;;;19.12;61.62;100680.34;5075770;28;20041;-52
2022/05/26 07:29:17;;;;;;;14.40;10.80;;;;;;;18.91;61.83;100689.94;5087215;28;20044;-52
2022/05/26 07:31:45;;;;;;;18.88;12.77;;;;;;;18.94;61.78;100689.22;5077730;28;20048;-51
2022/05/26 07:34:12;;;;;;;14.93;11.55;;;;;;;19.03;61.43;100695.47;5090679;28;20477;-52
2022/05/26 07:42:13;;;;;;;14.18;12.52;;;;;;;18.90;60.76;100696.78;5081012;28;20059;-52
2022/05/26 07:44:44;;;;;;;16.90;12.20;;;;;;;18.98;61.20;100692.94;5074875;28;20067;-50
2022/05/26 07:47:12;;;;;;;16.40;12.38;;;;;;;19.06;61.63;100702.41;5081424;28;20071;-52
2022/05/26 07:49:41;;;;;;;17.65;11.98;;;;;;;19.27;60.32;100696.44;5085753;28;20057;-52
2022/05/26 07:52:10;;;;;;;17.45;13.23;;;;;;;18.99;60.07;100697.41;5091499;28;20056;-52
2022/05/26 07:54:38;;;;;;;15.63;11.18;;;;;;;19.53;58.96;100698.66;5074790;28;20054;-52
2022/05/26 07:57:07;;;;;;;11.60;10.23;;;;;;;20.27;56.63;100703.41;5074656;28;20048;-54
2022/05/26 07:59:36;;;;;;;12.95;10.52;;;;;;;21.03;54.52;100697.88;5083542;28;20404;-53
2022/05/26 08:02:04;;;;;;;14.25;9.63;;;;;;;21.60;53.52;100705.59;5095243;28;20508;-52
2022/05/26 08:04:34;;;;;;;11.80;9.35;;;;;;;21.86;53.25;100704.75;5074656;28;20439;-52
2022/05/26 08:07:02;;;;;;;14.23;10.90;;;;;;;22.33;50.83;100708.16;5074853;28;20408;-52
2022/05/26 08:09:29;;;;;;;13.00;9.80;;;;;;;22.77;49.83;100704.50;5074991;28;20048;-52
2022/05/26 08:11:57;;;;;;;14.07;10.48;;;;;;;24.20;46.22;100705.38;5074095;28;20131;-50
2022/05/26 08:14:25;;;;;;;10.20;8.63;;;;;;;25.02;43.22;100704.69;5080598;28;20055;-53
2022/05/26 08:16:54;;;;;;;10.48;9.20;;;;;;;24.81;43.85;100708.34;5079337;28;20060;-51
2022/05/26 08:19:21;;;;;;;12.00;8.68;;;;;;;24.99;43.60;100710.38;5083441;28;20059;-50
2022/05/26 08:21:49;;;;;;;12.63;9.57;;;;;;;25.09;43.11;100721.78;5089904;28;20408;-50
2022/05/26 08:24:19;;;;;;;10.73;8.30;;;;;;;24.66;42.67;100720.97;5094013;28;20044;-50
2022/05/26 08:26:47;;;;;;;11.57;8.50;;;;;;;25.08;42.86;100719.34;5091928;28;20048;-51
2022/05/26 08:29:15;;;;;;;12.27;8.35;;;;;;;25.66;41.21;100720.06;5085559;28;20064;-50
2022/05/26 08:31:43;;;;;;;10.45;7.18;;;;;;;26.55;40.13;100723.75;5075312;28;20052;-50
2022/05/26 08:34:12;;;;;;;10.02;7.10;;;;;;;26.08;39.44;100721.97;5073474;28;20044;-51
2022/05/26 08:36:39;;;;;;;7.28;5.18;;;;;;;25.08;40.87;100737.25;5082902;28;20048;-50
2022/05/26 08:39:07;;;;;;;9.80;6.30;;;;;;;24.70;42.92;100736.84;5086376;28;20075;-53
2022/05/26 08:41:39;;;;;;;8.73;5.67;;;;;;;24.11;42.48;100730.56;5074006;28;20496;-50
2022/05/26 08:44:11;;;;;;;7.78;6.03;;;;;;;23.91;42.97;100738.59;5090260;28;20389;-52
2022/05/26 08:46:46;;;;;;;8.55;5.18;;;;;;;23.73;43.26;100740.50;5094051;28;20052;-50
2022/05/26 08:49:25;;;;;;;7.05;5.15;;;;;;;23.50;43.91;100733.09;5080057;28;20052;-50
2022/05/26 08:51:56;;;;;;;8.48;4.80;;;;;;;23.79;44.09;100736.09;5076907;28;20060;-52
2022/05/26 08:54:28;;;;;;;8.10;5.32;;;;;;;24.52;42.50;100739.63;5073889;28;20048;-50
2022/05/26 08:56:57;;;;;;;6.97;4.63;;;;;;;24.98;41.57;100738.06;5074421;28;20052;-50
2022/05/26 08:59:34;;;;;;;8.45;4.97;;;;;;;24.84;41.04;100743.75;5073534;28;20049;-52
2022/05/26 09:02:02;;;;;;;5.75;4.70;;;;;;;24.73;40.56;100748.63;5073979;28;20056;-53
2022/05/26 09:04:31;;;;;;;8.38;4.82;;;;;;;24.19;41.19;100755.00;5073008;28;20472;-51
2022/05/26 09:15:22;;;;;;;;;;;;;;;23.23;43.37;100752.41;5094365;28;19921;-52
2022/05/26 09:17:49;;;;;;;;;;;;;;;23.20;43.51;100751.13;5073610;28;20296;-51
2022/05/26 09:20:31;;;;;;;;;;;;;;;23.06;42.78;100757.53;5075277;28;20400;-53
2022/05/26 09:23:08;;;;;;;;;;;;;;;22.95;44.09;100761.47;5085525;28;20377;-54
2022/05/26 09:25:41;;;;;;;;;;;;;;;22.84;43.63;100769.88;5087289;28;19920;-51
2022/05/26 09:28:09;;;;;;;;;;;;;;;23.09;43.07;100773.78;5078026;28;19921;-52
2022/05/26 09:30:37;;;;;;;;;;;;;;;23.55;42.21;100766.03;5093352;28;20376;-51
2022/05/26 09:33:17;;;;;;;;;;;;;;;23.58;42.28;100765.22;5078135;28;19920;-54
2022/05/26 09:35:47;;;;;;;;;;;;;;;23.90;41.89;100771.94;5074871;28;19924;-54
2022/05/26 09:38:18;;;;;;;;;;;;;;;23.86;41.35;100771.09;5082948;28;20017;-50
2022/05/26 09:40:46;;;;;;;;;;;;;;;24.71;40.17;100775.50;5091477;28;19920;-53
2022/05/26 09:43:22;;;;;;;;;;;;;;;26.07;37.88;100777.44;5080254;28;19920;-52
2022/05/26 09:45:50;;;;;;;;;;;;;;;26.96;36.14;100765.94;5086052;28;20273;-52
2022/05/26 09:48:19;;;;;;;;;;;;;;;27.50;35.73;100764.25;5073755;28;19927;-50
2022/05/26 09:50:49;;;;;;;;;;;;;;;28.71;33.92;100760.34;5082504;28;19920;-52
2022/05/26 09:53:27;;;;;;;;;;;;;;;30.19;29.95;100767.94;5086372;28;19919;-50
2022/05/26 09:55:55;;;;;;;;;;;;;;;31.77;27.95;100758.34;5078438;28;19920;-52
2022/05/26 09:58:28;;;;;;;;;;;;;;;31.64;27.35;100769.00;5081413;28;19923;-53
2022/05/26 10:00:56;;;;;;;;;;;;;;;30.33;29.97;100766.84;5072896;28;19921;-51
2022/05/26 10:03:29;;;;;;;;;;;;;;;29.83;30.14;100774.41;5078730;28;19947;-52
2022/05/26 10:06:06;;;;;;;;;;;;;;;29.55;31.17;100765.06;5081136;28;19920;-52
2022/05/26 10:08:38;;;;;;;;;;;;;;;29.17;30.87;100795.25;5086963;28;19927;-52
2022/05/26 10:11:10;;;;;;;;;;;;;;;28.33;31.21;100780.50;5073565;28;20280;-52
2022/05/26 10:13:41;;;;;;;;;;;;;;;27.35;32.74;100777.06;5078333;28;19927;-52
2022/05/26 10:16:11;;;;;;;;;;;;;;;26.69;33.27;100784.50;5086638;28;19920;-51
2022/05/26 10:18:56;;;;;;;;;;;;;;;26.61;34.22;100791.50;5072764;28;19928;-52
2022/05/26 10:21:36;;;;;;;;;;;;;;;25.97;35.42;100791.75;5072708;28;19925;-54
2022/05/26 10:24:16;;;;;;;;;;;;;;;26.01;35.56;100787.66;5083991;28;19942;-52
2022/05/26 10:26:48;;;;;;;;;;;;;;;26.52;35.06;100786.22;5082551;28;19931;-53
2022/05/26 10:29:28;;;;;;;;;;;;;;;28.65;33.33;100779.28;5086454;28;19927;-54
2022/05/26 10:32:00;;;;;;;;;;;;;;;29.79;30.49;100784.34;5089219;28;19920;-52
2022/05/26 10:34:38;;;;;;;;;;;;;;;29.46;30.37;100779.19;5082419;28;19943;-54
2022/05/26 10:37:12;;;;;;;;;;;;;;;28.86;30.66;100784.66;5085582;28;19943;-52
2022/05/26 10:39:57;;;;;;;;;;;;;;;28.15;31.45;100783.59;5090098;28;19927;-52
2022/05/26 10:42:27;;;;;;;;;;;;;;;27.22;33.08;100793.09;5073631;28;20309;-53
2022/05/26 10:45:02;;;;;;;;;;;;;;;26.61;34.45;100787.84;5079656;28;19947;-51
2022/05/26 10:47:34;;;;;;;;;;;;;;;26.21;35.49;100790.84;5069803;28;19921;-55
2022/05/26 10:50:03;;;;;;;;;;;;;;;25.95;35.49;100797.06;5089577;28;20023;-52
2022/05/26 10:52:36;;;;;;;;;;;;;;;26.64;33.65;100807.78;5092630;28;19919;-49
2022/05/26 10:55:05;;;;;;;;;;;;;;;28.07;31.86;100787.78;5076117;28;19943;-52
2022/05/26 10:57:34;;;;;;;;;;;;;;;29.27;29.94;100771.31;5073226;28;19920;-53
2022/05/26 11:00:04;;;;;;;;;;;;;;;31.18;28.99;100780.47;5088198;28;19931;-54
2022/05/26 11:02:35;;;;;;;;;;;;;;;31.04;27.37;100787.41;5071711;28;20280;-54
2022/05/26 11:05:05;;;;;;;;;;;;;;;32.37;25.71;100783.81;5071703;28;19924;-55
2022/05/26 11:07:35;;;;;;;;;;;;;;;32.56;24.81;100796.44;5071422;28;19924;-54
2022/05/26 11:10:05;;;;;;;;;;;;;;;32.11;25.47;100792.41;5071115;28;19924;-52
2022/05/26 11:12:34;;;;;;;;;;;;;;;30.97;26.42;100793.31;5071483;28;20292;-53
2022/05/26 11:17:52;;;;;;;;;;;;;;;28.91;29.34;100791.97;5071238;28;19924;-51
2022/05/26 11:20:21;;;;;;;;;;;;;;;27.96;30.90;100796.50;5071082;28;19927;-51
2022/05/26 11:22:51;;;;;;;;;;;;;;;28.46;30.32;100792.19;5070978;28;20385;-52
2022/05/26 11:25:22;;;;;;;;;;;;;;;29.68;28.39;100801.75;5071696;28;19921;-52
2022/05/26 11:27:52;;;;;;;;;;;;;;;31.14;26.32;100782.63;5071973;28;20276;-52
2022/05/26 11:38:36;;;;;;;;;;;;;;;32.33;24.99;100794.63;5098422;28;19931;-52
2022/05/26 11:41:07;;;;;;;;;;;;;;;31.24;25.56;100801.69;5089955;28;19924;-52
2022/05/26 11:43:39;;;;;;;;;;;;;;;30.53;26.73;100801.28;5091601;28;19923;-52
2022/05/26 11:46:09;;;;;;;;;;;;;;;29.04;28.01;100813.09;5091913;28;19920;-53
2022/05/26 11:48:43;;;;;;;;;;;;;;;28.14;29.48;100810.63;5090386;28;19927;-51
2022/05/26 11:51:27;;;;;;;;;;;;;;;27.75;31.11;100811.84;5071280;28;19920;-51
2022/05/26 11:53:56;;;;;;;;;;;;;;;27.14;31.47;100818.88;5070324;28;19924;-51
2022/05/26 11:56:56;;;;;;;;;;;;;;;26.83;31.60;100831.38;5081505;28;19924;-51
2022/05/26 11:59:41;;;;;;;;;;;;;;;28.47;29.67;100823.28;5088215;28;19924;-51
2022/05/26 12:02:27;;;;;;;;;;;;;;;28.77;28.42;100813.09;5094928;28;19928;-54
2022/05/26 12:04:54;;;;;;;;;;;;;;;28.32;30.45;100799.72;5094858;28;19924;-52
2022/05/26 12:07:38;;;;;;;;;;;;;;;28.45;29.71;100791.38;5094890;28;19920;-55
2022/05/26 12:10:26;;;;;;;;;;;;;;;27.96;30.58;100789.97;5094934;28;19935;-51
2022/05/26 12:13:08;;;;;;;;;;;;;;;27.40;31.68;100772.94;5083944;28;19920;-51
2022/05/26 12:15:36;;;;;;;;;;;;;;;26.85;32.45;100806.03;5074066;28;19931;-52
2022/05/26 12:18:17;;;;;;;;;;;;;;;26.04;33.66;100788.88;5074024;28;19920;-54
2022/05/26 12:20:46;;;;;;;;;;;;;;;25.23;34.09;100803.66;5074262;28;20387;-54
2022/05/26 12:23:18;;;;;;;;;;;;;;;24.95;34.90;100795.88;5073916;28;19921;-54
2022/05/26 12:25:47;;;;;;;;;;;;;;;25.59;34.64;100789.38;5074039;28;19927;-53
2022/05/26 12:28:27;;;;;;;;;;;;;;;25.17;34.27;100784.50;5084398;28;20372;-53
2022/05/26 12:31:12;;;;;;;;;;;;;;;25.24;34.69;100795.91;5074627;28;19928;-50
2022/05/26 12:34:02;;;;;;;;;;;;;;;25.19;34.40;100799.16;5074253;28;19920;-52
2022/05/26 12:36:35;;;;;;;;;;;;;;;25.25;34.44;100791.84;5073920;28;20381;-54
2022/05/26 12:39:14;;;;;;;;;;;;;;;25.51;34.89;100793.44;5073628;28;19920;-51
2022/05/26 12:41:50;;;;;;;;;;;;;;;25.70;34.38;100783.63;5074193;28;19928;-52
2022/05/26 12:44:41;;;;;;;;;;;;;;;25.83;33.86;100782.00;5084389;28;19920;-52